Anglesea, New Jersey
Current Conditions -  °F | °C
As of 12:55 AM on Thursday 18 Dec 2014 (Local Time) from KWWD Reporting Station
Clear Clear  
Wind Chill: 32°   Ceiling: Unl
Heat Index: 39°   Visibility: 10mi
Dew Point: 25°   Wind: 13mph
Humidity: 56%   Direction: 290°WNW
Pressure: 29.98"   Gusts: 18mph
Location:  38.9808°N, 74.8281°W
Report Text: KWWD 180555Z AUTO 29011G16KT 10SM CLR 04/M04 A2998 RMK AO1 10070 20040 54000
Loading
Personal Weather Stations






























Interactive Weather Map New forecast layout! Learn more

10-Day Weather Forecast

Advertisements
Track Severe Weather on mobile